Time;durP1;ratioP1;P1;durP2;ratioP2;P2;SDS_P1;SDS_P2;PMS_P1;PMS_P2;Temp;Humidity;BMP_temperature;BMP_pressure;BME280_temperature;BME280_humidity;BME280_pressure;Samples;Min_cycle;Max_cycle;Signal;HPM_P1;HPM_P2
2022/11/24 00:01:23;;;;;;;11.43;6.97;;;;;;;0.72;100.00;97546.09;4192828;28;20063;-75
2022/11/24 00:03:23;;;;;;;11.48;6.47;;;;;;;0.75;100.00;97550.09;4168147;28;20052;-75
2022/11/24 00:05:23;;;;;;;13.00;6.45;;;;;;;0.75;100.00;97548.16;4198412;28;20047;-75
2022/11/24 00:07:23;;;;;;;11.68;6.88;;;;;;;0.76;100.00;97548.97;4199403;28;20036;-75
2022/11/24 00:09:24;;;;;;;13.40;6.38;;;;;;;0.78;100.00;97547.47;4194184;28;20067;-75
2022/11/24 00:11:27;;;;;;;10.63;5.93;;;;;;;0.77;100.00;97551.34;4200715;28;20048;-75
2022/11/24 00:13:27;;;;;;;9.85;6.65;;;;;;;0.80;100.00;97552.59;4199238;28;20131;-75
2022/11/24 00:15:27;;;;;;;10.85;7.00;;;;;;;0.84;100.00;97553.53;4200411;28;20159;-75
2022/11/24 00:17:28;;;;;;;6.85;5.32;;;;;;;0.88;100.00;97561.78;4201416;28;20568;-75
2022/11/24 00:19:28;;;;;;;10.05;5.85;;;;;;;0.88;100.00;97557.16;4201868;28;20042;-75
2022/11/24 00:21:30;;;;;;;12.60;6.18;;;;;;;0.89;100.00;97555.22;4201370;28;20538;-75
2022/11/24 00:23:31;;;;;;;13.57;6.05;;;;;;;0.92;100.00;97562.72;4199938;28;20064;-75
2022/11/24 00:25:31;;;;;;;10.05;5.30;;;;;;;0.93;100.00;97567.03;4201183;28;20442;-75
2022/11/24 00:27:32;;;;;;;8.82;5.80;;;;;;;0.97;100.00;97567.94;4201444;28;20068;-75
2022/11/24 00:29:32;;;;;;;10.65;6.28;;;;;;;1.00;100.00;97562.63;4201146;28;20067;-75
2022/11/24 00:31:35;;;;;;;12.02;6.40;;;;;;;1.04;100.00;97563.53;4201928;28;20078;-75
2022/11/24 00:33:36;;;;;;;7.88;5.88;;;;;;;1.06;100.00;97571.38;4200209;28;20076;-75
2022/11/24 00:35:36;;;;;;;9.70;5.78;;;;;;;1.08;100.00;97569.13;4201499;28;20083;-75
2022/11/24 00:37:36;;;;;;;8.38;5.93;;;;;;;1.07;100.00;97573.75;4200578;28;20072;-75
2022/11/24 00:39:36;;;;;;;7.85;5.22;;;;;;;1.09;100.00;97578.88;4201698;28;20199;-75
2022/11/24 00:41:37;;;;;;;9.98;5.03;;;;;;;1.06;100.00;97577.59;4201473;28;20058;-75
2022/11/24 00:43:38;;;;;;;7.80;5.28;;;;;;;1.08;100.00;97586.25;4200792;28;20295;-75
2022/11/24 00:45:38;;;;;;;7.13;4.25;;;;;;;1.12;100.00;97580.91;4200870;28;20123;-75
2022/11/24 00:47:38;;;;;;;8.52;5.00;;;;;;;1.16;100.00;97583.75;4201233;28;20134;-75
2022/11/24 00:49:39;;;;;;;7.82;4.78;;;;;;;1.19;100.00;97583.88;4201132;28;20545;-74
2022/11/24 00:51:39;;;;;;;6.65;4.78;;;;;;;1.22;100.00;97587.84;4201344;28;20036;-76
2022/11/24 00:53:40;;;;;;;7.55;4.60;;;;;;;1.24;100.00;97583.69;4201287;28;20052;-75
2022/11/24 00:55:40;;;;;;;5.82;4.05;;;;;;;1.28;100.00;97583.78;4200841;28;20503;-75
2022/11/24 00:57:40;;;;;;;7.13;4.05;;;;;;;1.35;100.00;97594.94;4201431;28;20492;-75
2022/11/24 00:59:41;;;;;;;6.63;3.95;;;;;;;1.53;100.00;97592.78;4201477;28;20044;-75
2022/11/24 01:01:41;;;;;;;4.28;2.63;;;;;;;1.81;100.00;97598.34;4200803;28;20043;-75
2022/11/24 01:03:42;;;;;;;5.35;2.65;;;;;;;1.92;100.00;97602.22;4198595;28;20480;-75
2022/11/24 01:05:42;;;;;;;3.85;2.60;;;;;;;1.98;100.00;97611.72;4200575;28;20089;-75
2022/11/24 01:07:43;;;;;;;3.97;2.92;;;;;;;2.00;100.00;97606.75;4201445;28;20046;-75
2022/11/24 01:09:44;;;;;;;4.72;2.70;;;;;;;2.02;100.00;97615.38;4200939;28;20043;-75
2022/11/24 01:12:03;;;;;;;3.75;2.70;;;;;;;2.02;100.00;97614.59;4200982;28;20043;-75
2022/11/24 01:14:03;;;;;;;4.82;2.88;;;;;;;2.12;100.00;97616.84;4200150;28;20044;-75
2022/11/24 01:16:03;;;;;;;3.67;2.67;;;;;;;2.18;100.00;97624.47;4201518;28;20529;-75
2022/11/24 01:18:04;;;;;;;7.53;2.92;;;;;;;2.31;100.00;97622.47;4201101;28;20050;-75
2022/11/24 01:20:05;;;;;;;5.15;2.90;;;;;;;2.33;100.00;97627.63;4203137;28;20027;-76
2022/11/24 01:22:06;;;;;;;4.53;2.67;;;;;;;2.38;100.00;97630.09;4200882;28;20496;-75
2022/11/24 01:24:06;;;;;;;3.85;2.97;;;;;;;2.40;100.00;97630.53;4202098;28;20059;-75
2022/11/24 01:26:08;;;;;;;5.72;3.33;;;;;;;2.49;100.00;97632.03;4201708;28;20414;-75
2022/11/24 01:28:09;;;;;;;3.97;3.13;;;;;;;2.53;100.00;97624.72;4186576;28;20677;-75
2022/11/24 01:30:09;;;;;;;4.47;3.25;;;;;;;2.63;100.00;97622.63;4203506;28;20392;-75
2022/11/24 01:32:10;;;;;;;6.15;3.13;;;;;;;2.71;100.00;97625.22;4201490;28;20051;-75
2022/11/24 01:34:11;;;;;;;5.72;3.60;;;;;;;2.79;100.00;97640.66;4201472;28;20035;-75
2022/11/24 01:36:12;;;;;;;7.03;3.38;;;;;;;2.85;100.00;97635.75;4201792;28;20031;-75
2022/11/24 01:38:12;;;;;;;7.65;3.63;;;;;;;2.95;100.00;97634.47;4202309;28;20032;-75
2022/11/24 01:40:12;;;;;;;5.53;3.20;;;;;;;3.05;100.00;97631.22;4204046;28;20032;-75
2022/11/24 01:42:13;;;;;;;5.57;3.65;;;;;;;3.12;100.00;97628.69;4201928;28;20028;-75
2022/11/24 01:44:25;;;;;;;5.70;3.80;;;;;;;3.24;100.00;97631.38;4202792;28;20060;-75
2022/11/24 01:46:32;;;;;;;5.63;3.25;;;;;;;3.32;100.00;97630.41;4203566;28;20373;-75
2022/11/24 01:48:39;;;;;;;9.32;3.40;;;;;;;3.43;100.00;97629.88;4204312;28;20292;-75
2022/11/24 01:50:41;;;;;;;5.85;3.40;;;;;;;3.45;100.00;97638.53;4201324;28;20044;-75
2022/11/24 01:52:50;;;;;;;6.15;3.20;;;;;;;3.45;100.00;97635.78;4201928;28;20037;-75
2022/11/24 01:55:05;;;;;;;3.63;3.05;;;;;;;3.45;100.00;97633.06;4201103;28;20054;-75
2022/11/24 01:57:22;;;;;;;7.70;4.50;;;;;;;3.48;100.00;97633.16;4202018;28;20097;-74
2022/11/24 01:59:24;;;;;;;6.00;3.33;;;;;;;3.48;100.00;97640.56;4202391;28;20306;-75
2022/11/24 02:01:24;;;;;;;8.53;3.77;;;;;;;3.45;100.00;97642.06;4203554;28;20357;-75
2022/11/24 02:03:30;;;;;;;5.35;3.58;;;;;;;3.34;100.00;97641.78;4203785;28;20312;-75
2022/11/24 02:05:45;;;;;;;5.72;3.35;;;;;;;3.28;100.00;97645.91;4203603;28;20119;-75
2022/11/24 02:07:46;;;;;;;6.45;3.53;;;;;;;3.20;100.00;97632.41;4203596;28;20430;-75
2022/11/24 02:09:56;;;;;;;10.10;3.70;;;;;;;3.23;100.00;97640.72;4203459;28;20117;-75
2022/11/24 02:11:58;;;;;;;7.18;3.33;;;;;;;3.23;100.00;97643.44;4203452;28;20704;-76
2022/11/24 02:13:59;;;;;;;8.75;3.33;;;;;;;3.22;100.00;97641.84;4202227;28;20415;-75
2022/11/24 02:16:00;;;;;;;7.03;3.00;;;;;;;3.25;100.00;97652.09;4202821;28;20040;-75
2022/11/24 02:18:00;;;;;;;10.48;3.13;;;;;;;3.26;100.00;97653.69;4203102;28;20067;-76
2022/11/24 02:20:07;;;;;;;8.05;2.70;;;;;;;3.25;100.00;97645.84;4185707;28;20151;-75
2022/11/24 02:22:23;;;;;;;6.95;3.10;;;;;;;3.14;100.00;97651.00;4202455;28;20056;-75
2022/11/24 02:24:50;;;;;;;5.65;2.63;;;;;;;3.17;100.00;97663.97;4201083;28;20048;-76
2022/11/24 02:26:51;;;;;;;5.80;2.70;;;;;;;3.19;100.00;97667.16;4202795;28;20122;-75
2022/11/24 02:28:51;;;;;;;6.45;3.22;;;;;;;3.17;100.00;97663.19;4202458;28;20262;-75
2022/11/24 02:30:53;;;;;;;6.65;3.00;;;;;;;3.31;100.00;97664.38;4203445;28;20032;-75
2022/11/24 02:32:53;;;;;;;6.70;3.05;;;;;;;3.38;100.00;97671.94;4202600;28;20043;-76
2022/11/24 02:35:02;;;;;;;9.43;3.03;;;;;;;3.43;100.00;97668.16;4202807;28;20038;-75
2022/11/24 02:37:02;;;;;;;4.63;3.08;;;;;;;3.45;100.00;97672.13;4201994;28;20511;-75
2022/11/24 02:39:08;;;;;;;7.78;3.67;;;;;;;3.49;100.00;97675.78;4204034;28;20414;-75
2022/11/24 02:41:12;;;;;;;7.63;3.88;;;;;;;3.62;100.00;97684.69;4203490;28;20067;-75
2022/11/24 02:43:18;;;;;;;9.02;3.50;;;;;;;3.67;100.00;97674.28;4200138;28;20082;-75
2022/11/24 02:45:19;;;;;;;9.82;3.13;;;;;;;3.73;100.00;97672.09;4201724;28;20028;-75
2022/11/24 02:47:20;;;;;;;7.63;4.07;;;;;;;3.82;100.00;97680.13;4202669;28;20698;-75
2022/11/24 02:49:20;;;;;;;6.90;3.55;;;;;;;3.85;100.00;97668.47;4202800;28;20040;-76
2022/11/24 02:51:21;;;;;;;5.43;2.95;;;;;;;3.81;100.00;97671.13;4203040;28;20044;-76
2022/11/24 02:53:22;;;;;;;6.72;3.35;;;;;;;3.82;100.00;97680.13;4202025;28;20097;-75
2022/11/24 02:55:22;;;;;;;8.10;3.22;;;;;;;3.80;100.00;97677.72;4201472;28;20586;-77
2022/11/24 02:57:22;;;;;;;7.57;3.50;;;;;;;3.78;100.00;97677.28;4200989;28;20373;-76
2022/11/24 02:59:23;;;;;;;7.82;3.10;;;;;;;3.73;100.00;97680.31;4200883;28;20101;-76
2022/11/24 03:01:23;;;;;;;7.68;2.95;;;;;;;3.73;100.00;97677.56;4200360;28;20086;-75
2022/11/24 03:03:24;;;;;;;7.05;3.10;;;;;;;3.75;100.00;97685.41;4201441;28;20135;-76
2022/11/24 03:05:25;;;;;;;6.60;3.30;;;;;;;3.76;100.00;97689.75;4202542;28;20048;-76
2022/11/24 03:07:25;;;;;;;8.88;2.88;;;;;;;3.73;100.00;97683.03;4202730;28;20082;-75
2022/11/24 03:09:26;;;;;;;9.45;3.10;;;;;;;3.86;100.00;97690.00;4203361;28;20480;-75
2022/11/24 03:11:26;;;;;;;7.50;2.95;;;;;;;3.95;100.00;97689.81;4203620;28;20480;-76
2022/11/24 03:13:27;;;;;;;5.80;3.00;;;;;;;3.93;100.00;97687.44;4202420;28;20271;-75
2022/11/24 03:15:27;;;;;;;6.53;3.22;;;;;;;3.85;100.00;97693.88;4203403;28;20474;-75
2022/11/24 03:17:28;;;;;;;9.50;3.42;;;;;;;3.91;100.00;97692.47;4203602;28;20066;-75
2022/11/24 03:19:28;;;;;;;10.68;3.17;;;;;;;3.85;100.00;97693.09;4203156;28;20054;-75
2022/11/24 03:21:28;;;;;;;8.10;2.90;;;;;;;3.83;100.00;97695.41;4203234;28;20477;-75
2022/11/24 03:23:29;;;;;;;4.95;2.72;;;;;;;3.78;100.00;97703.84;4202448;28;20040;-75
2022/11/24 03:25:29;;;;;;;8.52;2.97;;;;;;;3.78;100.00;97696.44;4203248;28;20044;-75
2022/11/24 03:27:30;;;;;;;4.03;2.50;;;;;;;3.79;100.00;97695.28;4203105;28;20044;-75
2022/11/24 03:29:30;;;;;;;10.23;3.55;;;;;;;3.81;100.00;97703.16;4202988;28;20083;-75
2022/11/24 03:31:31;;;;;;;8.68;3.28;;;;;;;3.82;100.00;97705.53;4203544;28;20546;-75
2022/11/24 03:33:31;;;;;;;7.80;3.17;;;;;;;3.90;100.00;97701.06;4202457;28;20083;-76
2022/11/24 03:35:32;;;;;;;8.65;3.30;;;;;;;3.93;100.00;97712.06;4203224;28;20063;-75
2022/11/24 03:37:33;;;;;;;7.35;2.95;;;;;;;3.97;100.00;97708.63;4202631;28;20088;-75
2022/11/24 03:39:33;;;;;;;8.98;3.28;;;;;;;4.09;100.00;97714.03;4201757;28;20513;-75
2022/11/24 03:41:33;;;;;;;7.53;3.30;;;;;;;4.19;100.00;97710.75;4201207;28;20063;-76
2022/11/24 03:43:34;;;;;;;8.40;3.60;;;;;;;4.26;100.00;97708.19;4201685;28;20040;-76
2022/11/24 03:45:34;;;;;;;12.13;3.92;;;;;;;4.24;100.00;97715.97;4203550;28;20372;-76
2022/11/24 03:47:34;;;;;;;9.38;3.78;;;;;;;4.30;100.00;97716.47;4202596;28;20087;-75
2022/11/24 03:49:35;;;;;;;9.00;3.88;;;;;;;4.43;100.00;97716.00;4202820;28;20075;-76
2022/11/24 03:51:35;;;;;;;13.38;4.10;;;;;;;4.45;100.00;97723.88;4202838;28;20500;-76
2022/11/24 03:53:36;;;;;;;5.93;2.92;;;;;;;4.40;100.00;97716.75;4202007;28;20437;-76
2022/11/24 03:55:36;;;;;;;7.75;3.45;;;;;;;4.33;100.00;97719.31;4202552;28;20044;-76
2022/11/24 03:57:36;;;;;;;9.10;3.65;;;;;;;4.28;100.00;97716.81;4202962;28;20474;-76
2022/11/24 03:59:37;;;;;;;7.63;4.28;;;;;;;4.21;100.00;97727.59;4202310;28;20543;-75
2022/11/24 04:01:37;;;;;;;9.35;3.25;;;;;;;4.19;100.00;97725.22;4202553;28;20102;-76
2022/11/24 04:03:37;;;;;;;10.93;3.58;;;;;;;4.17;100.00;97729.47;4202575;28;20291;-76
2022/11/24 04:05:38;;;;;;;7.97;3.10;;;;;;;4.17;100.00;97733.00;4202878;28;20040;-75
2022/11/24 04:07:38;;;;;;;8.65;2.85;;;;;;;4.15;100.00;97726.31;4202729;28;20076;-76
2022/11/24 04:09:39;;;;;;;8.15;3.60;;;;;;;4.16;100.00;97736.09;4201985;28;20446;-75
2022/11/24 04:13:58;;;;;;;8.90;3.22;;;;;;;4.17;100.00;97743.94;4201358;28;20051;-75
2022/11/24 04:15:59;;;;;;;8.60;3.08;;;;;;;4.13;100.00;97734.06;4203824;28;20040;-76
2022/11/24 04:17:59;;;;;;;8.18;3.58;;;;;;;4.09;100.00;97744.94;4202955;28;20047;-76
2022/11/24 04:19:59;;;;;;;4.63;3.15;;;;;;;4.07;100.00;97741.75;4202587;28;20320;-76
2022/11/24 04:22:00;;;;;;;14.07;3.30;;;;;;;4.10;100.00;97741.03;4202556;28;20036;-75
2022/11/24 04:24:00;;;;;;;6.03;3.08;;;;;;;4.11;100.00;97739.88;4201582;28;20047;-76
2022/11/24 04:26:00;;;;;;;15.55;4.32;;;;;;;4.13;100.00;97743.06;4202437;28;20046;-75
2022/11/24 04:28:01;;;;;;;11.30;3.45;;;;;;;4.22;100.00;97742.91;4202321;28;20074;-76
2022/11/24 04:30:03;;;;;;;12.90;4.07;;;;;;;4.29;100.00;97750.47;4202857;28;20044;-76
2022/11/24 04:32:04;;;;;;;5.13;2.72;;;;;;;4.29;100.00;97740.31;4202520;28;20028;-75
2022/11/24 04:34:04;;;;;;;7.30;3.63;;;;;;;4.28;100.00;97757.91;4201430;28;20187;-76
2022/11/24 04:36:05;;;;;;;4.95;2.65;;;;;;;4.32;100.00;97761.53;4202693;28;20036;-75
2022/11/24 04:38:05;;;;;;;9.48;3.22;;;;;;;4.31;100.00;97764.63;4202615;28;20020;-76
2022/11/24 04:40:07;;;;;;;7.88;3.72;;;;;;;4.25;100.00;97766.03;4202035;28;20111;-75
2022/11/24 04:42:08;;;;;;;5.13;3.10;;;;;;;4.21;100.00;97771.41;4202275;28;20590;-76
2022/11/24 04:44:08;;;;;;;7.38;2.53;;;;;;;4.24;100.00;97770.72;4202068;28;20442;-76
2022/11/24 04:46:10;;;;;;;5.95;3.25;;;;;;;4.24;100.00;97770.72;4202091;28;20032;-75
2022/11/24 04:48:10;;;;;;;6.35;2.80;;;;;;;4.24;100.00;97770.72;4202546;28;20032;-75
2022/11/24 04:50:11;;;;;;;7.22;2.67;;;;;;;4.21;100.00;97769.47;4202584;28;20054;-76
2022/11/24 04:52:11;;;;;;;7.32;3.15;;;;;;;4.23;100.00;97774.63;4203064;28;20125;-75
2022/11/24 04:54:12;;;;;;;6.75;3.03;;;;;;;4.30;100.00;97782.97;4204614;28;20502;-75
2022/11/24 04:56:13;;;;;;;5.65;3.28;;;;;;;4.40;100.00;97792.63;4205911;28;20032;-75
2022/11/24 04:58:13;;;;;;;7.32;2.70;;;;;;;4.42;100.00;97787.59;4205452;28;20039;-76
2022/11/24 05:00:14;;;;;;;6.70;2.53;;;;;;;4.47;100.00;97793.59;4205506;28;20028;-75
2022/11/24 05:02:14;;;;;;;8.35;3.47;;;;;;;4.53;100.00;97796.84;4205453;28;20020;-76
2022/11/24 05:04:15;;;;;;;7.60;2.72;;;;;;;4.49;100.00;97788.56;4204929;28;20214;-76
2022/11/24 05:06:15;;;;;;;9.35;3.38;;;;;;;4.53;100.00;97799.59;4205496;28;20042;-76
2022/11/24 05:08:16;;;;;;;8.73;3.03;;;;;;;4.51;100.00;97790.94;4205168;28;20028;-76
2022/11/24 05:10:34;;;;;;;6.18;3.42;;;;;;;4.58;100.00;97793.06;4205004;28;20380;-75
2022/11/24 05:12:35;;;;;;;10.15;4.00;;;;;;;4.63;100.00;97790.81;4203916;28;20234;-75
2022/11/24 05:14:35;;;;;;;5.10;2.67;;;;;;;4.64;100.00;97789.69;4205063;28;20397;-76
2022/11/24 05:16:36;;;;;;;13.25;3.25;;;;;;;4.65;100.00;97799.50;4205014;28;20090;-75
2022/11/24 05:18:37;;;;;;;7.05;3.20;;;;;;;4.65;100.00;97796.75;4204807;28;20044;-76
2022/11/24 05:20:37;;;;;;;6.05;3.67;;;;;;;4.66;100.00;97797.56;4203826;28;20423;-75
2022/11/24 05:22:37;;;;;;;8.02;4.18;;;;;;;4.67;100.00;97799.16;4203932;28;20151;-76
2022/11/24 05:24:38;;;;;;;10.43;3.58;;;;;;;4.69;100.00;97799.56;4205423;28;20055;-76
2022/11/24 05:26:38;;;;;;;8.75;3.22;;;;;;;4.64;100.00;97795.19;4205144;28;20126;-76
2022/11/24 05:28:38;;;;;;;12.35;3.30;;;;;;;4.57;100.00;97789.53;4205269;28;20082;-76
2022/11/24 05:30:40;;;;;;;8.23;2.75;;;;;;;4.51;100.00;97796.41;4205095;28;20078;-76
2022/11/24 05:32:40;;;;;;;7.75;2.92;;;;;;;4.44;100.00;97797.03;4204576;28;20036;-75
2022/11/24 05:34:40;;;;;;;6.05;3.00;;;;;;;4.38;100.00;97803.91;4205118;28;20440;-76
2022/11/24 05:36:53;;;;;;;4.53;3.15;;;;;;;4.30;100.00;97802.16;4202938;28;20032;-76
2022/11/24 05:38:53;;;;;;;6.30;2.83;;;;;;;4.24;100.00;97811.78;4205234;28;20511;-76
2022/11/24 05:40:53;;;;;;;10.07;3.15;;;;;;;4.25;100.00;97813.38;4204469;28;20127;-76
2022/11/24 05:42:54;;;;;;;9.32;3.17;;;;;;;4.21;100.00;97818.75;4204767;28;20771;-76
2022/11/24 05:44:54;;;;;;;10.95;3.15;;;;;;;4.15;100.00;97825.66;4204913;28;20102;-76
2022/11/24 05:46:54;;;;;;;9.60;2.95;;;;;;;4.17;100.00;97825.31;4186426;28;20048;-75
2022/11/24 05:48:55;;;;;;;11.02;2.90;;;;;;;4.17;100.00;97822.56;4205347;28;20126;-75
2022/11/24 05:50:56;;;;;;;7.03;2.60;;;;;;;4.25;100.00;97829.03;4204053;28;20063;-76
2022/11/24 05:53:01;;;;;;;9.23;2.90;;;;;;;4.24;100.00;97830.97;4203751;28;20059;-76
2022/11/24 05:55:02;;;;;;;12.77;3.00;;;;;;;4.26;100.00;97819.66;4204448;28;20082;-75
2022/11/24 05:57:03;;;;;;;10.15;3.03;;;;;;;4.25;100.00;97818.06;4186975;28;20446;-76
2022/11/24 05:59:04;;;;;;;7.00;2.50;;;;;;;4.31;100.00;97819.41;4204618;28;20044;-75
2022/11/24 06:01:05;;;;;;;7.55;2.80;;;;;;;4.29;100.00;97819.72;4204231;28;20511;-75
2022/11/24 06:03:06;;;;;;;5.70;2.77;;;;;;;4.26;100.00;97825.94;4203529;28;20123;-76
2022/11/24 06:05:07;;;;;;;6.70;2.45;;;;;;;4.22;100.00;97827.78;4204779;28;20325;-76
2022/11/24 06:07:10;;;;;;;6.75;2.70;;;;;;;4.16;100.00;97823.72;4204270;28;20044;-76
2022/11/24 06:09:10;;;;;;;10.50;2.70;;;;;;;4.16;100.00;97829.97;4204528;28;20048;-76
2022/11/24 06:11:16;;;;;;;4.25;2.15;;;;;;;4.09;100.00;97829.00;4204235;28;20044;-76
2022/11/24 06:13:16;;;;;;;5.63;2.33;;;;;;;4.03;100.00;97831.19;4203819;28;20666;-76
2022/11/24 06:15:17;;;;;;;4.95;2.47;;;;;;;4.04;100.00;97834.72;4204881;28;20035;-76
2022/11/24 06:17:18;;;;;;;8.07;2.88;;;;;;;4.08;100.00;97830.16;4204531;28;20097;-76
2022/11/24 06:19:18;;;;;;;5.78;2.20;;;;;;;4.06;100.00;97838.72;4204225;28;20721;-76
2022/11/24 06:21:18;;;;;;;6.88;3.92;;;;;;;4.07;100.00;97845.78;4204478;28;20048;-75
2022/11/24 06:23:18;;;;;;;10.05;4.18;;;;;;;4.06;100.00;97843.41;4202063;28;20257;-76
2022/11/24 06:25:19;;;;;;;11.73;3.55;;;;;;;4.00;100.00;97845.59;4202844;28;20044;-76
2022/11/24 06:27:19;;;;;;;8.27;4.75;;;;;;;3.92;100.00;97850.06;4204705;28;20040;-76
2022/11/24 06:29:19;;;;;;;11.63;5.03;;;;;;;3.82;100.00;97856.06;4203956;28;20043;-75
2022/11/24 06:31:20;;;;;;;14.25;7.47;;;;;;;3.70;100.00;97855.28;4203524;28;20076;-75
2022/11/24 06:33:20;;;;;;;8.80;5.03;;;;;;;3.60;100.00;97857.38;4202466;28;20036;-75
2022/11/24 06:35:21;;;;;;;10.77;5.50;;;;;;;3.53;100.00;97845.44;4202507;28;20517;-76
2022/11/24 06:37:21;;;;;;;12.13;5.75;;;;;;;3.46;100.00;97856.16;4204047;28;20109;-76
2022/11/24 06:39:21;;;;;;;10.70;4.28;;;;;;;3.35;100.00;97848.44;4204435;28;20430;-76
2022/11/24 06:41:22;;;;;;;6.35;4.03;;;;;;;3.31;100.00;97853.03;4204285;28;20072;-76
2022/11/24 06:43:22;;;;;;;8.85;4.43;;;;;;;3.24;100.00;97854.75;4203129;28;20109;-75
2022/11/24 06:45:22;;;;;;;9.48;4.43;;;;;;;3.19;100.00;97852.25;4203404;28;20044;-76
2022/11/24 06:47:23;;;;;;;7.03;4.07;;;;;;;3.14;100.00;97853.25;4204266;28;20079;-76
2022/11/24 06:49:23;;;;;;;8.90;3.38;;;;;;;3.12;100.00;97855.56;4202802;28;20094;-75
2022/11/24 06:51:24;;;;;;;8.10;3.80;;;;;;;3.14;100.00;97869.66;4203766;28;20522;-76
2022/11/24 06:53:25;;;;;;;7.05;3.40;;;;;;;3.16;100.00;97866.59;4202987;28;20134;-76
2022/11/24 06:55:25;;;;;;;7.50;4.15;;;;;;;3.14;100.00;97868.88;4203409;28;20071;-75
2022/11/24 06:57:28;;;;;;;8.30;3.92;;;;;;;3.13;100.00;97873.53;4203808;28;20051;-76
2022/11/24 06:59:28;;;;;;;12.57;4.15;;;;;;;3.15;100.00;97882.22;4203593;28;20483;-75
2022/11/24 07:01:29;;;;;;;7.70;3.40;;;;;;;3.15;100.00;97876.75;4203814;28;20059;-76
2022/11/24 07:03:29;;;;;;;9.80;3.30;;;;;;;3.15;100.00;97882.22;4201929;28;20051;-76
2022/11/24 07:05:30;;;;;;;5.50;2.90;;;;;;;3.15;100.00;97875.94;4203474;28;20477;-76
2022/11/24 07:07:30;;;;;;;9.98;4.18;;;;;;;3.15;100.00;97890.41;4203581;28;20547;-76
2022/11/24 07:09:30;;;;;;;10.43;5.43;;;;;;;3.14;100.00;97894.25;4183138;28;20476;-76
2022/11/24 07:11:31;;;;;;;10.88;5.65;;;;;;;3.12;100.00;97893.81;4197432;28;20075;-76
2022/11/24 07:13:32;;;;;;;12.80;5.28;;;;;;;3.10;100.00;97896.91;4198016;28;20076;-76
2022/11/24 07:15:32;;;;;;;12.00;6.50;;;;;;;3.12;100.00;97901.22;4201205;28;20093;-76
2022/11/24 07:17:37;;;;;;;9.93;4.72;;;;;;;3.12;100.00;97901.22;4202383;28;20051;-76
2022/11/24 07:19:37;;;;;;;6.78;4.45;;;;;;;3.12;100.00;97896.56;4201327;28;20482;-75
2022/11/24 07:21:38;;;;;;;8.90;5.10;;;;;;;3.14;100.00;97901.66;4202274;28;20069;-75
2022/11/24 07:23:38;;;;;;;8.05;4.53;;;;;;;3.19;100.00;97913.19;4182982;28;20051;-76
2022/11/24 07:25:39;;;;;;;9.38;4.85;;;;;;;3.25;100.00;97914.53;4201943;28;20138;-76
2022/11/24 07:27:40;;;;;;;12.20;5.18;;;;;;;3.29;100.00;97906.44;4201302;28;20032;-75
2022/11/24 07:29:40;;;;;;;9.18;5.28;;;;;;;3.33;100.00;97918.31;4142424;27;20047;-75
2022/11/24 07:31:41;;;;;;;12.25;5.75;;;;;;;3.41;100.00;97922.06;4183627;28;20064;-76
2022/11/24 07:33:41;;;;;;;11.95;5.88;;;;;;;3.46;100.00;97921.78;4201219;28;20051;-76
2022/11/24 07:35:42;;;;;;;9.55;6.22;;;;;;;3.47;100.00;97926.13;4199567;28;20590;-75
2022/11/24 07:37:43;;;;;;;14.35;7.32;;;;;;;3.50;100.00;97926.25;4200668;28;20467;-75
2022/11/24 07:39:43;;;;;;;17.52;8.52;;;;;;;3.56;100.00;97935.03;4201897;28;20043;-76
2022/11/24 07:41:43;;;;;;;22.83;9.80;;;;;;;3.62;100.00;97923.47;4201455;28;20346;-76
2022/11/24 07:43:44;;;;;;;19.92;9.95;;;;;;;3.67;100.00;97933.38;4200917;28;20143;-76
2022/11/24 07:45:50;;;;;;;20.20;8.32;;;;;;;3.75;100.00;97934.41;4194626;28;20040;-75
2022/11/24 07:47:51;;;;;;;18.00;7.70;;;;;;;3.81;100.00;97935.75;4195797;28;20044;-76
2022/11/24 07:49:51;;;;;;;16.10;7.75;;;;;;;3.84;100.00;97924.09;4191974;28;20113;-76
2022/11/24 07:51:52;;;;;;;16.77;7.40;;;;;;;3.88;100.00;97933.19;4194036;28;20126;-76
2022/11/24 07:53:52;;;;;;;18.23;8.30;;;;;;;3.94;100.00;97940.03;4192993;28;20067;-76
2022/11/24 07:55:59;;;;;;;17.13;8.00;;;;;;;4.03;100.00;97937.16;4195255;28;20055;-76
2022/11/24 07:58:00;;;;;;;12.10;6.85;;;;;;;4.09;100.00;97944.78;4198546;28;20040;-76
2022/11/24 08:00:00;;;;;;;20.48;6.88;;;;;;;4.19;100.00;97943.47;4195019;28;20044;-76
2022/11/24 08:02:01;;;;;;;10.77;5.18;;;;;;;4.23;100.00;97941.66;4195405;28;20070;-75
2022/11/24 08:04:01;;;;;;;17.02;6.85;;;;;;;4.26;100.00;97949.16;4195763;28;20537;-75
2022/11/24 08:06:02;;;;;;;15.73;6.40;;;;;;;4.31;100.00;97942.63;4195310;28;20043;-75
2022/11/24 08:08:02;;;;;;;13.45;5.00;;;;;;;4.30;100.00;97941.81;4198176;28;20368;-76
2022/11/24 08:10:03;;;;;;;19.63;5.60;;;;;;;4.41;100.00;97947.59;4199634;28;20032;-76
2022/11/24 08:12:04;;;;;;;11.80;5.07;;;;;;;4.51;100.00;97947.09;4193984;28;20028;-75
2022/11/24 08:14:04;;;;;;;12.15;4.38;;;;;;;4.55;100.00;97939.78;4196520;28;20426;-75
2022/11/24 08:16:07;;;;;;;13.30;4.13;;;;;;;4.60;100.00;97939.50;4198690;28;20097;-76
2022/11/24 08:18:07;;;;;;;7.28;3.67;;;;;;;4.68;100.00;97935.00;4200308;28;21100;-75
2022/11/24 08:20:08;;;;;;;11.82;3.63;;;;;;;4.74;100.00;97933.59;4200860;28;20028;-76
2022/11/24 08:22:09;;;;;;;9.95;4.45;;;;;;;4.82;100.00;97938.13;4201222;28;20028;-75
2022/11/24 08:24:09;;;;;;;20.45;4.50;;;;;;;4.85;100.00;97937.41;4200975;28;20361;-76
2022/11/24 08:26:14;;;;;;;13.57;3.78;;;;;;;4.90;100.00;97928.91;4202993;28;20089;-76
2022/11/24 08:28:14;;;;;;;23.77;4.32;;;;;;;4.96;100.00;97923.94;4205655;28;20028;-75
2022/11/24 08:30:15;;;;;;;11.93;4.43;;;;;;;5.03;100.00;97938.63;4206477;28;20571;-76
2022/11/24 08:32:16;;;;;;;11.70;3.58;;;;;;;5.11;100.00;97934.13;4203910;28;20032;-75
2022/11/24 08:34:16;;;;;;;12.13;3.42;;;;;;;5.16;100.00;97939.34;4204746;28;20398;-76
2022/11/24 08:36:18;;;;;;;12.30;3.45;;;;;;;5.23;100.00;97939.50;4205409;28;20302;-75
2022/11/24 08:38:18;;;;;;;10.07;4.13;;;;;;;5.33;100.00;97943.66;4205877;28;20477;-75
2022/11/24 08:40:19;;;;;;;11.10;2.78;;;;;;;5.32;100.00;97931.09;4205379;28;20040;-76
2022/11/24 08:42:19;;;;;;;7.45;3.35;;;;;;;5.35;100.00;97938.59;4205503;28;20032;-76
2022/11/24 08:44:19;;;;;;;7.28;2.72;;;;;;;5.33;100.00;97935.44;4205838;28;20311;-76
2022/11/24 08:46:20;;;;;;;9.65;4.10;;;;;;;5.30;100.00;97947.13;4184888;28;20406;-76
2022/11/24 08:48:20;;;;;;;7.63;3.30;;;;;;;5.35;100.00;97952.31;4205097;28;20784;-76
2022/11/24 08:50:22;;;;;;;9.85;3.65;;;;;;;5.33;100.00;97949.94;4204802;28;20075;-76
2022/11/24 08:52:22;;;;;;;10.50;3.70;;;;;;;5.35;100.00;97950.38;4205486;28;20047;-76
2022/11/24 08:54:24;;;;;;;13.57;4.10;;;;;;;5.35;100.00;97944.09;4205473;28;20036;-76
2022/11/24 08:56:26;;;;;;;9.93;3.63;;;;;;;5.30;100.00;97952.59;4204650;28;20113;-75
2022/11/24 08:58:30;;;;;;;17.70;5.90;;;;;;;5.33;100.00;97944.44;4203188;28;20036;-76
2022/11/24 09:00:30;;;;;;;11.00;5.78;;;;;;;5.33;100.00;97960.13;4204478;28;20043;-76
2022/11/24 09:02:31;;;;;;;7.60;4.65;;;;;;;5.34;100.00;97948.00;4205285;28;20425;-76
2022/11/24 09:04:31;;;;;;;10.05;4.22;;;;;;;5.33;100.00;97954.63;4204621;28;20344;-76
2022/11/24 09:06:31;;;;;;;23.08;5.15;;;;;;;5.31;100.00;97948.72;4206032;28;20044;-76
2022/11/24 09:08:32;;;;;;;7.20;4.00;;;;;;;5.35;100.00;97961.34;4205065;28;20046;-76
2022/11/24 09:10:32;;;;;;;6.90;3.25;;;;;;;5.35;100.00;97960.53;4202113;28;20395;-76
2022/11/24 09:12:33;;;;;;;9.88;3.63;;;;;;;5.49;100.00;97968.31;4203601;28;20093;-76
2022/11/24 09:14:33;;;;;;;12.85;3.45;;;;;;;5.64;100.00;97970.25;4204545;28;20114;-76
2022/11/24 09:16:33;;;;;;;10.93;3.58;;;;;;;5.72;100.00;97966.50;4203047;28;20036;-76
2022/11/24 09:18:35;;;;;;;6.45;3.25;;;;;;;5.78;100.00;97965.06;4205187;28;20090;-76
2022/11/24 09:20:35;;;;;;;18.15;6.50;;;;;;;5.88;100.00;97961.75;4205314;28;20059;-76
2022/11/24 09:22:36;;;;;;;9.25;4.72;;;;;;;5.92;100.00;97970.09;4204566;28;20044;-75
2022/11/24 09:24:37;;;;;;;24.17;9.45;;;;;;;5.96;100.00;97976.47;4204830;28;20180;-75
2022/11/24 09:26:37;;;;;;;24.67;10.05;;;;;;;6.02;100.00;97979.72;4204347;28;20066;-76
2022/11/24 09:28:38;;;;;;;23.83;9.98;;;;;;;6.02;100.00;97976.97;4204126;28;20059;-76
2022/11/24 09:30:38;;;;;;;8.57;4.20;;;;;;;6.02;100.00;97975.00;4197921;28;20048;-75
2022/11/24 09:32:39;;;;;;;9.10;4.88;;;;;;;6.06;100.00;97975.09;4196769;28;20046;-76